Lincoln, United Kingdom
Current Conditions -  °F | °C
As of 10:50 PM on Thursday 18 Dec 2014 (Local Time) from EGXW Reporting Station
Broken Clouds Broken Clouds  
Wind Chill: 13°   Ceiling: 1700
Heat Index: 13°   Visibility: 6mi
Dew Point: 10°   Wind: 20mph
Humidity: 82%   Direction: 240°WSW
Pressure: 29.62"   Gusts: NA
Location:  53.23°N, 0.54°W
Report Text: EGXW 182250Z 24017KT 9999 BKN017 13/10 Q1003 WHT
Loading
Personal Weather Stations






























Interactive Weather Map New forecast layout! Learn more

10-Day Weather Forecast

Advertisements
Track Severe Weather on mobile